Time;durP1;ratioP1;P1;durP2;ratioP2;P2;SDS_P1;SDS_P2;PMS_P1;PMS_P2;Temp;Humidity;BMP_temperature;BMP_pressure;BME280_temperature;BME280_humidity;BME280_pressure;Samples;Min_cycle;Max_cycle;Signal;HPM_P1;HPM_P2
2023/03/21 00:02:22;;;;;;;27.27;16.00;;;8.60;99.90;;;;;;5085267;28;20039;-79
2023/03/21 00:04:48;;;;;;;26.63;15.68;;;8.60;99.90;;;;;;5085925;28;20493;-79
2023/03/21 00:07:15;;;;;;;26.55;15.10;;;8.60;99.90;;;;;;5085672;28;20037;-79
2023/03/21 00:09:42;;;;;;;25.00;15.25;;;8.60;99.90;;;;;;5085364;28;20080;-79
2023/03/21 00:12:10;;;;;;;27.45;15.52;;;8.70;99.90;;;;;;5102204;28;20045;-79
2023/03/21 00:14:37;;;;;;;24.80;14.43;;;8.70;99.90;;;;;;5087743;28;20098;-79
2023/03/21 00:17:04;;;;;;;26.20;14.95;;;8.70;99.90;;;;;;5123448;28;20041;-79
2023/03/21 00:19:30;;;;;;;25.70;14.52;;;8.70;99.90;;;;;;5105816;28;20033;-79
2023/03/21 00:21:57;;;;;;;26.88;15.00;;;8.60;99.90;;;;;;5089751;28;20032;-79
2023/03/21 00:24:24;;;;;;;24.25;14.27;;;8.70;99.90;;;;;;5089758;28;20136;-79
2023/03/21 00:26:51;;;;;;;25.15;14.80;;;8.60;99.90;;;;;;5106035;28;20428;-78
2023/03/21 00:29:18;;;;;;;23.25;14.20;;;8.70;99.90;;;;;;5089296;28;20101;-79
2023/03/21 00:31:44;;;;;;;24.55;14.27;;;8.60;99.90;;;;;;5089136;28;20044;-79
2023/03/21 00:34:11;;;;;;;24.85;14.75;;;8.70;99.90;;;;;;5089494;28;20056;-79
2023/03/21 00:36:38;;;;;;;27.48;14.68;;;8.70;99.90;;;;;;5105714;28;20041;-79
2023/03/21 00:39:05;;;;;;;27.50;14.85;;;8.70;99.90;;;;;;5089082;28;20033;-79
2023/03/21 00:41:31;;;;;;;22.70;13.48;;;8.70;99.90;;;;;;5105600;28;20041;-79
2023/03/21 00:43:58;;;;;;;24.42;14.20;;;8.70;99.90;;;;;;5105808;28;20506;-79
2023/03/21 00:46:25;;;;;;;23.67;13.18;;;8.70;99.90;;;;;;5089020;28;20044;-79
2023/03/21 00:48:51;;;;;;;22.70;13.68;;;8.70;99.90;;;;;;5105960;28;20049;-79
2023/03/21 00:51:25;;;;;;;27.15;14.23;;;8.70;99.90;;;;;;5089140;28;20083;-79
2023/03/21 00:53:57;;;;;;;24.98;14.07;;;8.70;99.90;;;;;;5105812;28;20470;-79
2023/03/21 00:56:24;;;;;;;23.60;13.23;;;8.70;99.90;;;;;;5088676;28;20033;-79
2023/03/21 00:58:51;;;;;;;25.00;13.13;;;8.70;99.90;;;;;;5088976;28;20041;-79
2023/03/21 01:01:17;;;;;;;26.02;13.00;;;8.70;99.90;;;;;;5105598;28;20029;-79
2023/03/21 01:03:46;;;;;;;22.13;12.35;;;8.70;99.90;;;;;;5088547;28;20067;-79
2023/03/21 01:06:18;;;;;;;23.83;12.10;;;8.70;99.90;;;;;;5105743;28;20099;-79
2023/03/21 01:08:46;;;;;;;23.65;12.48;;;8.70;99.90;;;;;;5089512;28;20460;-79
2023/03/21 01:11:16;;;;;;;26.40;13.20;;;8.80;99.90;;;;;;5089026;28;20501;-79
2023/03/21 01:13:43;;;;;;;22.15;12.00;;;8.80;99.90;;;;;;5104988;28;20041;-78
2023/03/21 01:16:10;;;;;;;25.65;12.65;;;8.70;99.90;;;;;;5088934;28;20052;-79
2023/03/21 01:18:39;;;;;;;23.00;12.35;;;8.70;99.90;;;;;;5105303;28;20048;-79
2023/03/21 01:21:09;;;;;;;24.00;12.18;;;8.80;99.90;;;;;;5088268;28;20527;-79
2023/03/21 01:23:37;;;;;;;25.65;12.57;;;8.70;99.90;;;;;;5105013;28;20041;-79
2023/03/21 01:26:04;;;;;;;25.63;11.60;;;8.80;99.90;;;;;;5087064;28;20047;-79
2023/03/21 01:28:32;;;;;;;26.50;11.60;;;8.80;99.90;;;;;;5105178;28;20037;-79
2023/03/21 01:31:01;;;;;;;24.10;11.20;;;8.80;99.90;;;;;;5088458;28;20040;-79
2023/03/21 01:33:29;;;;;;;26.88;12.55;;;8.80;99.90;;;;;;5088131;28;20041;-80
2023/03/21 01:35:56;;;;;;;32.22;12.77;;;8.80;99.90;;;;;;5088564;28;20038;-79
2023/03/21 01:38:22;;;;;;;33.55;12.80;;;8.80;99.90;;;;;;5088241;28;20519;-79
2023/03/21 01:40:50;;;;;;;39.38;14.15;;;8.80;99.90;;;;;;5087662;28;20041;-79
2023/03/21 01:43:35;;;;;;;40.72;12.77;;;8.80;99.90;;;;;;5104510;28;20534;-79
2023/03/21 01:46:20;;;;;;;42.40;13.25;;;8.80;99.90;;;;;;5071814;28;20032;-79
2023/03/21 01:48:58;;;;;;;47.35;14.00;;;8.90;99.90;;;;;;5071194;28;20047;-79
2023/03/21 01:51:26;;;;;;;40.40;13.25;;;8.90;99.90;;;;;;5071620;28;20090;-79
2023/03/21 01:53:54;;;;;;;47.17;13.98;;;8.90;99.90;;;;;;5054796;28;20048;-79
2023/03/21 01:56:31;;;;;;;42.53;13.80;;;8.90;99.90;;;;;;5055194;28;20029;-79
2023/03/21 01:59:04;;;;;;;45.72;13.98;;;8.90;99.90;;;;;;5071247;28;20554;-80
2023/03/21 02:01:33;;;;;;;39.20;13.48;;;8.90;99.90;;;;;;5071401;28;20072;-79
2023/03/21 02:04:02;;;;;;;42.38;13.82;;;8.90;99.90;;;;;;5071063;28;20136;-79
2023/03/21 02:06:38;;;;;;;41.20;14.50;;;8.90;99.90;;;;;;5070928;28;20460;-79
2023/03/21 02:09:10;;;;;;;40.67;13.68;;;8.90;99.90;;;;;;5071204;28;20485;-79
2023/03/21 02:11:38;;;;;;;39.90;14.07;;;8.90;99.90;;;;;;5070579;28;20048;-79
2023/03/21 02:14:12;;;;;;;37.90;13.05;;;8.90;99.90;;;;;;5054480;28;20044;-79
2023/03/21 02:16:51;;;;;;;32.85;12.80;;;8.90;99.90;;;;;;5070673;28;20041;-79
2023/03/21 02:19:25;;;;;;;39.78;13.82;;;8.90;99.90;;;;;;5104347;28;20486;-79
2023/03/21 02:22:37;;;;;;;37.63;12.93;;;8.90;99.90;;;;;;5087126;28;20501;-79
2023/03/21 02:25:36;;;;;;;38.47;14.10;;;8.90;99.90;;;;;;5103977;28;20417;-79
2023/03/21 02:28:29;;;;;;;38.88;13.38;;;8.90;99.90;;;;;;5066752;28;20056;-79
2023/03/21 02:31:44;;;;;;;36.72;13.38;;;8.90;99.90;;;;;;5103956;28;20040;-79
2023/03/21 02:34:48;;;;;;;36.95;12.57;;;8.90;99.90;;;;;;5065853;28;20052;-79
2023/03/21 02:37:45;;;;;;;36.38;14.32;;;8.90;99.90;;;;;;5008951;28;20042;-79
2023/03/21 02:40:29;;;;;;;37.17;13.57;;;8.90;99.90;;;;;;4966932;28;20049;-79
2023/03/21 02:43:21;;;;;;;32.08;14.43;;;8.90;99.90;;;;;;5066415;28;20037;-79
2023/03/21 02:45:53;;;;;;;30.70;12.57;;;8.90;99.90;;;;;;5067743;28;20044;-79
2023/03/21 02:48:41;;;;;;;33.40;13.93;;;8.90;99.90;;;;;;5086971;28;20083;-79
2023/03/21 02:51:13;;;;;;;32.47;13.25;;;8.90;99.90;;;;;;5070432;28;20047;-79
2023/03/21 02:53:43;;;;;;;28.67;13.48;;;8.90;99.90;;;;;;5086703;28;20498;-80
2023/03/21 02:56:11;;;;;;;26.73;12.55;;;8.90;99.90;;;;;;5070079;28;20037;-79
2023/03/21 02:58:40;;;;;;;28.58;13.10;;;9.00;99.90;;;;;;5103738;28;20072;-79
2023/03/21 03:01:08;;;;;;;30.75;12.23;;;8.90;99.90;;;;;;5103176;28;20045;-79
2023/03/21 03:03:38;;;;;;;24.80;11.02;;;9.00;99.90;;;;;;5053648;28;20088;-79
2023/03/21 03:06:16;;;;;;;28.50;11.73;;;8.90;99.90;;;;;;5053617;28;20131;-79
2023/03/21 03:09:04;;;;;;;28.13;12.23;;;8.90;99.90;;;;;;5103191;28;20075;-79
2023/03/21 03:11:35;;;;;;;27.77;12.50;;;8.90;99.90;;;;;;5103590;28;20049;-79
2023/03/21 03:14:46;;;;;;;28.23;12.52;;;9.00;99.90;;;;;;5102689;28;20033;-79
2023/03/21 03:17:24;;;;;;;25.77;11.70;;;9.00;99.90;;;;;;5069073;28;20036;-79
2023/03/21 03:20:15;;;;;;;26.50;11.85;;;9.00;99.90;;;;;;5103087;28;20037;-79
2023/03/21 03:23:11;;;;;;;26.60;12.32;;;9.00;99.90;;;;;;5102972;28;20493;-79
2023/03/21 03:25:49;;;;;;;24.20;11.70;;;9.00;99.90;;;;;;5103066;28;20037;-79
2023/03/21 03:28:22;;;;;;;22.95;10.70;;;9.00;99.90;;;;;;5102912;28;20159;-79
2023/03/21 03:30:50;;;;;;;23.45;11.25;;;9.00;99.90;;;;;;5085588;28;20535;-79
2023/03/21 03:33:22;;;;;;;25.88;11.35;;;9.00;99.90;;;;;;5102662;28;20084;-79
2023/03/21 03:35:51;;;;;;;26.15;11.75;;;9.00;99.90;;;;;;5086313;28;20400;-79
2023/03/21 03:38:20;;;;;;;26.10;11.38;;;9.00;99.90;;;;;;5086177;28;20033;-79
2023/03/21 03:41:04;;;;;;;21.90;11.63;;;9.00;99.90;;;;;;5086367;28;20032;-79
2023/03/21 03:43:39;;;;;;;24.83;12.27;;;9.00;99.90;;;;;;5069395;28;20041;-79
2023/03/21 03:46:17;;;;;;;20.58;11.35;;;9.00;99.90;;;;;;5085524;28;21091;-79
2023/03/21 03:48:53;;;;;;;23.17;11.48;;;9.00;99.90;;;;;;5101775;28;20048;-79
2023/03/21 03:51:49;;;;;;;24.35;10.15;;;9.00;99.90;;;;;;5069118;28;20493;-79
2023/03/21 03:54:22;;;;;;;22.00;10.50;;;9.00;99.90;;;;;;5102621;28;20129;-79
2023/03/21 03:56:49;;;;;;;23.60;10.90;;;9.00;99.90;;;;;;5102032;28;20036;-79
2023/03/21 03:59:23;;;;;;;23.35;10.85;;;9.00;99.90;;;;;;5085664;28;20510;-79
2023/03/21 04:01:50;;;;;;;20.77;10.25;;;9.00;99.90;;;;;;5086628;28;20036;-79
2023/03/21 04:04:17;;;;;;;22.10;10.48;;;9.00;99.90;;;;;;5085558;28;20053;-79
2023/03/21 04:06:50;;;;;;;21.40;9.95;;;9.00;99.90;;;;;;5085717;28;20047;-79
2023/03/21 04:09:18;;;;;;;20.25;10.55;;;9.00;99.90;;;;;;5085141;28;20048;-79
2023/03/21 04:11:45;;;;;;;22.20;10.23;;;9.00;99.90;;;;;;5069108;28;20041;-79
2023/03/21 04:14:12;;;;;;;20.45;10.68;;;9.00;99.90;;;;;;5102102;28;20076;-79
2023/03/21 04:16:38;;;;;;;22.02;11.00;;;9.00;99.90;;;;;;5085699;28;20079;-79
2023/03/21 04:19:05;;;;;;;21.67;10.18;;;9.00;99.90;;;;;;5085459;28;20090;-79
2023/03/21 04:21:32;;;;;;;19.90;10.07;;;9.00;99.90;;;;;;5102063;28;20068;-79
2023/03/21 04:23:59;;;;;;;20.83;10.35;;;9.00;99.90;;;;;;5085136;28;20102;-79
2023/03/21 04:26:31;;;;;;;23.23;10.55;;;9.00;99.90;;;;;;5085362;28;20045;-79
2023/03/21 04:28:59;;;;;;;22.65;11.40;;;9.00;99.90;;;;;;5086069;28;20044;-79
2023/03/21 04:31:29;;;;;;;22.80;11.45;;;9.00;99.90;;;;;;5068755;28;20082;-79
2023/03/21 04:33:58;;;;;;;20.58;10.18;;;9.00;99.90;;;;;;5085388;28;20044;-79
2023/03/21 04:36:29;;;;;;;22.70;10.35;;;9.00;99.90;;;;;;5069034;28;20040;-79
2023/03/21 04:39:00;;;;;;;18.52;10.52;;;9.00;99.90;;;;;;5085708;28;20478;-79
2023/03/21 04:41:27;;;;;;;22.67;11.00;;;9.00;99.90;;;;;;5102123;28;20047;-79
2023/03/21 04:43:55;;;;;;;19.42;10.57;;;9.00;99.90;;;;;;5101754;28;20123;-81
2023/03/21 04:46:22;;;;;;;20.17;9.75;;;9.00;99.90;;;;;;5101712;28;20041;-79
2023/03/21 04:48:49;;;;;;;22.77;9.48;;;9.00;99.90;;;;;;5085246;28;20073;-79
2023/03/21 04:51:16;;;;;;;26.00;9.95;;;9.00;99.90;;;;;;5084976;28;20150;-79
2023/03/21 04:53:44;;;;;;;22.33;10.40;;;9.00;99.90;;;;;;5068335;28;20045;-79
2023/03/21 04:56:11;;;;;;;21.70;9.82;;;9.00;99.90;;;;;;5084927;28;20037;-79
2023/03/21 04:58:39;;;;;;;24.02;10.05;;;9.00;99.90;;;;;;5068474;28;20075;-79
2023/03/21 05:01:06;;;;;;;22.08;9.48;;;9.00;99.90;;;;;;5104326;28;20040;-79
2023/03/21 05:03:38;;;;;;;21.85;10.07;;;9.00;99.90;;;;;;5105303;28;20473;-79
2023/03/21 05:06:09;;;;;;;16.58;9.20;;;9.00;99.90;;;;;;5105312;28;20044;-79
2023/03/21 05:08:36;;;;;;;23.45;9.07;;;9.00;99.90;;;;;;5122719;28;20041;-79
2023/03/21 05:11:03;;;;;;;21.80;9.38;;;9.00;99.90;;;;;;5088291;28;20067;-79
2023/03/21 05:13:30;;;;;;;20.90;9.02;;;9.00;99.90;;;;;;5071868;28;20036;-79
2023/03/21 05:15:56;;;;;;;20.98;9.38;;;9.00;99.90;;;;;;5071663;28;20047;-79
2023/03/21 05:18:23;;;;;;;16.17;8.43;;;9.00;99.90;;;;;;5088424;28;20037;-79
2023/03/21 05:20:55;;;;;;;16.42;8.82;;;9.00;99.90;;;;;;5071505;28;20056;-79
2023/03/21 05:23:22;;;;;;;19.20;8.55;;;9.00;99.90;;;;;;5087971;28;20047;-79
2023/03/21 05:25:49;;;;;;;21.52;9.50;;;9.00;99.90;;;;;;5088157;28;20076;-79
2023/03/21 05:28:19;;;;;;;18.40;9.25;;;9.00;99.90;;;;;;5088013;28;20048;-79
2023/03/21 05:30:46;;;;;;;17.00;9.30;;;9.00;99.90;;;;;;5071451;28;20066;-79
2023/03/21 05:33:13;;;;;;;23.02;9.45;;;9.00;99.90;;;;;;5088152;28;20128;-79
2023/03/21 05:35:40;;;;;;;22.05;9.88;;;9.00;99.90;;;;;;5071556;28;20044;-79
2023/03/21 05:38:06;;;;;;;19.20;9.48;;;9.00;99.90;;;;;;5087266;28;20113;-79
2023/03/21 05:40:33;;;;;;;17.48;9.85;;;9.00;99.90;;;;;;5071184;28;20045;-79
2023/03/21 05:43:00;;;;;;;17.60;9.65;;;9.00;99.90;;;;;;5087580;28;20048;-79
2023/03/21 05:45:27;;;;;;;17.52;9.95;;;9.00;99.90;;;;;;5071055;28;20045;-79
2023/03/21 05:47:53;;;;;;;18.63;9.90;;;9.00;99.90;;;;;;5070983;28;20080;-79
2023/03/21 05:50:20;;;;;;;21.95;9.82;;;9.00;99.90;;;;;;5104155;28;20130;-79
2023/03/21 05:52:47;;;;;;;19.90;10.15;;;9.00;99.90;;;;;;5071041;28;20041;-79
2023/03/21 05:55:13;;;;;;;17.10;9.40;;;9.00;99.90;;;;;;5087578;28;20047;-79
2023/03/21 05:57:40;;;;;;;14.98;8.90;;;9.00;99.90;;;;;;5070995;28;20037;-79
2023/03/21 06:00:08;;;;;;;18.02;9.38;;;9.00;99.90;;;;;;5087586;28;20131;-79
2023/03/21 06:02:35;;;;;;;17.27;9.07;;;9.00;99.90;;;;;;5070713;28;20041;-79
2023/03/21 06:05:02;;;;;;;19.02;9.02;;;9.00;99.90;;;;;;5087684;28;20056;-79
2023/03/21 06:07:29;;;;;;;17.25;9.25;;;9.00;99.90;;;;;;5086648;28;20040;-79
2023/03/21 06:09:55;;;;;;;20.15;9.93;;;9.00;99.90;;;;;;5087774;28;20768;-79
2023/03/21 06:12:22;;;;;;;15.88;9.70;;;9.00;99.90;;;;;;5070087;28;20036;-79
2023/03/21 06:14:49;;;;;;;18.90;10.05;;;9.00;99.90;;;;;;5070560;28;20041;-79
2023/03/21 06:17:15;;;;;;;18.42;9.10;;;9.00;99.90;;;;;;5053985;28;20041;-79
2023/03/21 06:19:42;;;;;;;17.23;9.25;;;9.00;99.90;;;;;;5087106;28;20059;-79
2023/03/21 06:22:09;;;;;;;20.58;9.85;;;9.00;99.90;;;;;;5087661;28;20397;-80
2023/03/21 06:24:36;;;;;;;17.55;9.75;;;9.00;99.90;;;;;;5103717;28;20126;-79
2023/03/21 06:27:03;;;;;;;18.42;9.38;;;9.00;99.90;;;;;;5070637;28;20049;-79
2023/03/21 06:29:30;;;;;;;21.13;9.95;;;9.00;99.90;;;;;;5070293;28;20048;-79
2023/03/21 06:31:57;;;;;;;16.85;10.00;;;9.00;99.90;;;;;;5070553;28;20095;-79
2023/03/21 06:34:24;;;;;;;21.83;10.07;;;9.00;99.90;;;;;;5103398;28;20044;-79
2023/03/21 06:36:50;;;;;;;19.48;10.07;;;9.00;99.90;;;;;;5103630;28;20037;-79
2023/03/21 06:39:17;;;;;;;18.25;10.13;;;9.00;99.90;;;;;;5087022;28;20036;-79
2023/03/21 06:41:44;;;;;;;16.25;9.52;;;9.10;99.90;;;;;;5053592;28;20059;-79
2023/03/21 06:44:11;;;;;;;17.70;9.88;;;9.10;99.90;;;;;;5086890;28;20143;-79
2023/03/21 06:46:38;;;;;;;17.13;10.30;;;9.10;99.90;;;;;;5103144;28;20049;-79
2023/03/21 06:49:04;;;;;;;16.90;10.27;;;9.10;99.90;;;;;;5087309;28;20127;-79
2023/03/21 06:51:31;;;;;;;15.55;9.93;;;9.00;99.90;;;;;;5087136;28;20040;-79
2023/03/21 06:53:58;;;;;;;17.98;10.10;;;9.10;99.90;;;;;;5070088;28;20071;-79
2023/03/21 06:56:24;;;;;;;15.93;10.18;;;9.10;99.90;;;;;;5086636;28;20073;-79
2023/03/21 06:58:51;;;;;;;19.13;10.45;;;9.10;99.90;;;;;;5087111;28;20051;-79
2023/03/21 07:01:18;;;;;;;20.13;11.57;;;9.10;99.90;;;;;;5086950;28;20057;-79
2023/03/21 07:03:45;;;;;;;19.73;11.52;;;9.10;99.90;;;;;;5086786;28;20080;-79
2023/03/21 07:06:12;;;;;;;19.48;11.68;;;9.10;99.90;;;;;;5103371;28;20050;-79
2023/03/21 07:08:40;;;;;;;18.67;11.85;;;9.10;99.90;;;;;;5086991;28;20186;-79
2023/03/21 07:11:08;;;;;;;20.98;11.40;;;9.10;99.90;;;;;;5086588;28;20040;-79
2023/03/21 07:13:35;;;;;;;21.45;13.02;;;9.10;99.90;;;;;;5086621;28;20467;-79
2023/03/21 07:16:02;;;;;;;22.20;12.20;;;9.10;99.90;;;;;;5086418;28;20391;-79
2023/03/21 07:18:29;;;;;;;20.40;11.98;;;9.10;99.90;;;;;;5086585;28;20045;-79
2023/03/21 07:20:56;;;;;;;21.02;12.77;;;9.10;99.90;;;;;;5053787;28;20033;-79
2023/03/21 07:23:24;;;;;;;20.08;11.77;;;9.10;99.90;;;;;;5101896;28;20068;-79
2023/03/21 07:25:52;;;;;;;23.13;12.52;;;9.10;99.90;;;;;;5086103;28;20041;-79
2023/03/21 07:28:19;;;;;;;22.48;12.75;;;9.10;99.90;;;;;;5102387;28;20124;-81
2023/03/21 07:30:55;;;;;;;21.77;11.98;;;9.20;99.90;;;;;;5102686;28;20136;-79
2023/03/21 07:33:22;;;;;;;22.45;11.20;;;9.20;99.90;;;;;;5101983;28;20588;-79
2023/03/21 07:35:50;;;;;;;21.13;11.13;;;9.20;99.90;;;;;;5102219;28;20051;-79
2023/03/21 07:38:18;;;;;;;18.63;11.30;;;9.20;99.90;;;;;;5103206;28;20032;-79
2023/03/21 07:40:46;;;;;;;19.23;11.15;;;9.20;99.90;;;;;;5086152;28;20047;-79
2023/03/21 07:43:14;;;;;;;18.60;10.73;;;9.20;99.90;;;;;;5119308;28;20488;-79
2023/03/21 07:45:41;;;;;;;18.67;10.52;;;9.30;99.90;;;;;;5068877;28;20037;-79
2023/03/21 07:48:09;;;;;;;19.48;11.05;;;9.30;99.90;;;;;;5069646;28;20094;-79
2023/03/21 07:50:35;;;;;;;19.00;10.68;;;9.30;99.90;;;;;;5085792;28;20501;-79
2023/03/21 07:53:02;;;;;;;17.85;10.13;;;9.30;99.90;;;;;;5086028;28;20083;-79
2023/03/21 07:55:29;;;;;;;18.98;10.70;;;9.30;99.90;;;;;;5085489;28;20041;-79
2023/03/21 07:57:56;;;;;;;16.02;9.45;;;9.30;99.90;;;;;;5085620;28;20040;-79
2023/03/21 08:00:23;;;;;;;16.30;9.68;;;9.30;99.90;;;;;;5069202;28;20032;-79
2023/03/21 08:02:55;;;;;;;17.20;9.88;;;9.40;99.90;;;;;;5068226;28;20057;-80
2023/03/21 08:05:23;;;;;;;18.10;9.80;;;9.40;99.90;;;;;;5068868;28;20049;-79
2023/03/21 08:07:50;;;;;;;16.42;8.90;;;9.40;99.90;;;;;;5068644;28;20151;-79
2023/03/21 08:10:18;;;;;;;15.13;9.25;;;9.40;99.90;;;;;;5052363;28;20072;-79
2023/03/21 08:12:45;;;;;;;16.23;8.60;;;9.50;99.90;;;;;;5052034;28;20128;-79
2023/03/21 08:15:13;;;;;;;15.27;8.35;;;9.50;99.90;;;;;;5069183;28;20040;-79
2023/03/21 08:17:44;;;;;;;16.35;8.43;;;9.60;99.90;;;;;;5068746;28;20044;-79
2023/03/21 08:20:14;;;;;;;14.55;7.90;;;9.60;99.90;;;;;;5069032;28;20037;-78
2023/03/21 08:22:42;;;;;;;15.48;7.82;;;9.50;99.90;;;;;;5066911;28;20095;-79
2023/03/21 08:25:14;;;;;;;13.57;7.82;;;9.60;99.90;;;;;;5068678;28;20040;-79
2023/03/21 08:27:43;;;;;;;13.38;7.57;;;9.60;99.90;;;;;;5047451;28;20449;-79
2023/03/21 08:30:12;;;;;;;13.20;7.07;;;9.60;99.90;;;;;;5083968;28;20037;-80
2023/03/21 08:32:41;;;;;;;10.70;6.53;;;9.60;99.90;;;;;;5084538;28;20037;-80
2023/03/21 08:35:10;;;;;;;12.00;7.43;;;9.60;99.90;;;;;;5069509;28;20041;-79
2023/03/21 08:37:38;;;;;;;12.73;6.40;;;9.70;99.90;;;;;;5072127;28;20041;-79
2023/03/21 08:40:10;;;;;;;9.10;6.07;;;9.60;99.90;;;;;;5105858;28;20045;-79
2023/03/21 08:42:37;;;;;;;11.27;6.28;;;9.60;99.90;;;;;;5105599;28;20041;-79
2023/03/21 08:45:05;;;;;;;10.30;5.57;;;9.60;99.90;;;;;;5105305;28;20041;-78
2023/03/21 08:47:32;;;;;;;10.05;6.07;;;9.60;99.90;;;;;;5055886;28;20543;-79
2023/03/21 08:49:59;;;;;;;10.07;6.10;;;9.60;99.90;;;;;;5088732;28;20037;-79
2023/03/21 08:52:27;;;;;;;11.32;6.18;;;9.60;99.90;;;;;;5103517;28;20045;-78
2023/03/21 08:54:54;;;;;;;8.98;5.82;;;9.70;99.90;;;;;;5105401;28;20135;-80
2023/03/21 08:57:21;;;;;;;8.85;5.82;;;9.70;99.90;;;;;;5088521;28;20127;-80
2023/03/21 08:59:48;;;;;;;10.85;5.93;;;9.70;99.90;;;;;;5082434;28;20558;-80
2023/03/21 09:02:16;;;;;;;9.10;5.78;;;9.70;99.90;;;;;;5051737;28;20041;-80
2023/03/21 09:04:43;;;;;;;8.52;5.60;;;9.70;99.90;;;;;;5068102;28;20459;-80
2023/03/21 09:07:11;;;;;;;9.50;5.65;;;9.70;99.90;;;;;;5067680;28;20042;-79
2023/03/21 09:09:38;;;;;;;8.57;5.65;;;9.70;99.90;;;;;;5064709;28;20041;-80
2023/03/21 09:12:05;;;;;;;9.23;5.95;;;9.70;99.90;;;;;;5105068;28;20866;-80
2023/03/21 09:14:33;;;;;;;9.05;6.07;;;9.70;99.90;;;;;;5118472;28;20033;-80
2023/03/21 09:17:00;;;;;;;10.38;5.60;;;9.70;99.90;;;;;;5088465;28;20408;-80
2023/03/21 09:19:27;;;;;;;8.88;6.10;;;9.60;99.90;;;;;;5055131;28;20041;-80
2023/03/21 09:21:54;;;;;;;9.77;6.50;;;9.60;99.90;;;;;;5071381;28;20515;-80
2023/03/21 09:24:21;;;;;;;10.45;6.47;;;9.60;99.90;;;;;;5071691;28;20123;-81
2023/03/21 09:26:50;;;;;;;11.40;6.53;;;9.70;99.90;;;;;;5087336;28;20056;-81
2023/03/21 09:29:22;;;;;;;11.48;6.68;;;9.70;99.90;;;;;;5071217;28;20037;-81
2023/03/21 09:31:48;;;;;;;10.73;7.03;;;9.70;99.90;;;;;;5088791;28;20397;-80
2023/03/21 09:34:15;;;;;;;10.95;6.65;;;9.80;99.90;;;;;;5088277;28;20041;-80
2023/03/21 09:36:47;;;;;;;12.20;6.70;;;9.80;99.90;;;;;;5103896;28;20033;-81
2023/03/21 09:39:15;;;;;;;12.55;7.30;;;9.80;99.90;;;;;;5055713;28;20055;-80
2023/03/21 09:41:50;;;;;;;9.60;6.35;;;9.80;99.90;;;;;;5121141;28;20046;-80
2023/03/21 09:45:00;;;;;;;12.18;7.32;;;9.80;99.90;;;;;;5070882;28;20041;-80
2023/03/21 09:47:33;;;;;;;11.48;7.15;;;9.80;99.90;;;;;;5074496;28;20064;-80
2023/03/21 09:50:15;;;;;;;12.82;7.65;;;9.80;99.90;;;;;;5070363;28;20040;-80
2023/03/21 09:52:55;;;;;;;14.43;7.22;;;9.80;99.90;;;;;;5070527;28;20045;-80
2023/03/21 09:55:30;;;;;;;12.23;6.68;;;9.80;99.90;;;;;;5103425;28;20049;-79
2023/03/21 09:57:56;;;;;;;12.18;6.93;;;9.80;99.90;;;;;;5070547;28;20044;-80
2023/03/21 10:00:34;;;;;;;12.98;7.55;;;9.80;99.90;;;;;;5104341;28;20040;-79
2023/03/21 10:03:06;;;;;;;13.75;7.85;;;9.80;99.90;;;;;;5070031;28;20053;-80
2023/03/21 10:05:38;;;;;;;16.45;7.38;;;9.80;99.90;;;;;;5087252;28;20795;-80
2023/03/21 10:08:18;;;;;;;14.43;7.88;;;9.90;99.90;;;;;;5104140;28;20048;-80
2023/03/21 10:10:49;;;;;;;12.07;6.90;;;9.90;99.90;;;;;;5070387;28;20048;-80
2023/03/21 10:13:26;;;;;;;12.82;7.72;;;9.90;99.90;;;;;;5103728;28;20103;-80
2023/03/21 10:16:01;;;;;;;17.05;8.02;;;9.90;99.90;;;;;;5069856;28;20133;-80
2023/03/21 10:18:30;;;;;;;14.80;7.85;;;9.90;99.90;;;;;;5070542;28;20037;-80
2023/03/21 10:20:57;;;;;;;19.25;8.73;;;9.90;99.90;;;;;;5120019;28;20129;-80
2023/03/21 10:23:28;;;;;;;13.07;8.63;;;9.90;99.90;;;;;;5069947;28;20132;-80
2023/03/21 10:25:58;;;;;;;17.85;9.20;;;9.90;99.90;;;;;;5070036;28;20045;-80
2023/03/21 10:28:34;;;;;;;16.50;9.57;;;9.80;99.90;;;;;;5069871;28;20045;-80
2023/03/21 10:31:08;;;;;;;16.40;9.32;;;9.80;99.90;;;;;;5103785;28;20045;-80
2023/03/21 10:33:38;;;;;;;15.93;9.15;;;9.80;99.90;;;;;;5119814;28;20128;-80
2023/03/21 10:36:11;;;;;;;20.60;9.82;;;9.80;99.90;;;;;;5069693;28;20539;-80
2023/03/21 10:38:44;;;;;;;16.20;9.68;;;9.80;99.90;;;;;;5069635;28;20102;-81
2023/03/21 10:41:11;;;;;;;21.73;10.77;;;9.80;99.90;;;;;;5069777;28;20037;-80
2023/03/21 10:43:39;;;;;;;19.38;10.13;;;9.70;99.90;;;;;;5085841;28;20565;-81
2023/03/21 10:46:22;;;;;;;21.30;10.43;;;9.70;99.90;;;;;;5086240;28;20047;-81
2023/03/21 10:48:53;;;;;;;20.88;9.60;;;9.70;99.90;;;;;;5069005;28;20049;-81
2023/03/21 10:51:24;;;;;;;20.25;10.02;;;9.70;99.90;;;;;;5086294;28;20063;-81
2023/03/21 10:53:56;;;;;;;25.02;10.25;;;9.70;99.90;;;;;;5069327;28;20132;-81
2023/03/21 10:56:27;;;;;;;19.60;10.48;;;9.60;99.90;;;;;;5069497;28;20045;-81
2023/03/21 10:58:58;;;;;;;20.65;10.98;;;9.60;99.90;;;;;;5069535;28;20041;-80
2023/03/21 11:01:35;;;;;;;21.38;11.27;;;9.60;99.90;;;;;;5069572;28;20045;-80
2023/03/21 11:04:23;;;;;;;19.48;10.95;;;9.70;99.90;;;;;;5082070;28;20127;-81
2023/03/21 11:07:13;;;;;;;23.00;11.07;;;9.60;99.90;;;;;;5082592;28;20045;-80
2023/03/21 11:09:47;;;;;;;22.13;10.25;;;9.70;99.90;;;;;;5082800;28;20076;-80
2023/03/21 11:12:40;;;;;;;21.60;10.07;;;9.70;99.90;;;;;;5079774;28;20110;-80
2023/03/21 11:15:29;;;;;;;20.20;9.80;;;9.70;99.90;;;;;;5102509;28;20742;-80
2023/03/21 11:17:57;;;;;;;17.15;10.38;;;9.70;99.90;;;;;;5085959;28;20048;-80
2023/03/21 11:20:25;;;;;;;22.13;9.90;;;9.80;99.90;;;;;;5086203;28;20576;-80
2023/03/21 11:22:55;;;;;;;18.45;9.50;;;9.80;99.90;;;;;;5069232;28;20036;-80
2023/03/21 11:25:26;;;;;;;18.13;9.68;;;9.80;99.90;;;;;;5085907;28;20033;-79
2023/03/21 11:27:54;;;;;;;15.63;8.75;;;9.90;99.90;;;;;;5068400;28;20535;-80
2023/03/21 11:30:26;;;;;;;20.30;9.20;;;9.90;99.90;;;;;;5069138;28;20051;-80
2023/03/21 11:33:00;;;;;;;17.67;9.35;;;10.00;99.90;;;;;;5068651;28;20037;-79
2023/03/21 11:35:33;;;;;;;19.35;9.90;;;10.00;99.90;;;;;;5068735;28;20076;-79
2023/03/21 11:37:59;;;;;;;18.58;8.90;;;10.10;99.90;;;;;;5068749;28;20029;-81
2023/03/21 11:40:32;;;;;;;17.70;9.18;;;10.10;99.90;;;;;;5068662;28;20067;-80
2023/03/21 11:43:16;;;;;;;18.83;9.15;;;10.20;99.90;;;;;;5068193;28;20041;-80
2023/03/21 11:46:07;;;;;;;18.35;8.85;;;10.20;99.90;;;;;;5087284;28;20049;-79
2023/03/21 11:48:42;;;;;;;18.05;8.98;;;10.30;99.90;;;;;;5102258;28;20536;-80
2023/03/21 11:51:35;;;;;;;15.63;8.85;;;10.30;99.90;;;;;;5084915;28;20086;-80
2023/03/21 11:54:16;;;;;;;16.58;9.35;;;10.40;99.90;;;;;;5101663;28;20405;-79
2023/03/21 11:56:50;;;;;;;16.42;8.43;;;10.40;99.90;;;;;;5102331;28;20142;-79
2023/03/21 11:59:37;;;;;;;16.10;8.95;;;10.50;99.90;;;;;;5069027;28;20048;-79
2023/03/21 12:02:53;;;;;;;17.48;9.52;;;10.60;99.90;;;;;;5082240;28;20041;-79
2023/03/21 12:05:40;;;;;;;16.37;8.67;;;10.80;99.90;;;;;;5109445;28;20123;-79
2023/03/21 12:08:26;;;;;;;;;;;10.90;99.90;;;;;;5085241;28;20040;-79
2023/03/21 12:11:22;;;;;;;16.40;8.25;;;11.00;99.90;;;;;;5081032;28;19925;-79
2023/03/21 12:14:12;;;;;;;16.02;10.00;;;11.00;99.90;;;;;;5069098;28;20615;-80
2023/03/21 12:16:48;;;;;;;16.65;9.23;;;11.00;99.90;;;;;;5060188;28;20053;-79
2023/03/21 12:19:50;;;;;;;16.88;8.77;;;11.10;99.90;;;;;;5085449;28;20041;-79
2023/03/21 12:22:50;;;;;;;17.10;8.45;;;11.00;99.90;;;;;;5031178;28;20163;-79
2023/03/21 12:25:26;;;;;;;15.98;8.05;;;11.10;99.90;;;;;;5082348;28;20793;-79
2023/03/21 12:28:05;;;;;;;14.55;7.80;;;11.10;99.90;;;;;;5064898;28;20107;-79
2023/03/21 12:30:59;;;;;;;13.80;8.02;;;11.00;99.90;;;;;;5081917;28;20042;-80
2023/03/21 12:33:47;;;;;;;18.15;7.68;;;11.10;99.90;;;;;;5081498;28;20046;-79
2023/03/21 12:36:17;;;;;;;15.65;7.50;;;11.10;99.90;;;;;;5091391;28;20179;-79
2023/03/21 12:38:46;;;;;;;14.60;7.97;;;11.10;99.90;;;;;;5102102;28;20489;-79
2023/03/21 12:41:44;;;;;;;14.75;6.93;;;11.20;99.90;;;;;;5101524;28;20040;-79
2023/03/21 12:44:16;;;;;;;15.35;7.10;;;11.20;99.90;;;;;;5076336;28;20051;-79
2023/03/21 12:46:58;;;;;;;13.57;7.10;;;11.20;99.90;;;;;;5101890;28;20440;-79
2023/03/21 12:49:37;;;;;;;14.93;6.55;;;11.20;99.90;;;;;;5085551;28;20040;-79
2023/03/21 12:52:09;;;;;;;10.43;6.22;;;11.20;99.90;;;;;;5101492;28;20062;-79
2023/03/21 12:54:51;;;;;;;12.10;6.68;;;11.30;99.90;;;;;;5068943;28;20052;-79
2023/03/21 12:57:33;;;;;;;15.07;6.70;;;11.30;99.90;;;;;;5068354;28;20044;-78
2023/03/21 13:00:14;;;;;;;13.00;6.55;;;11.30;99.90;;;;;;5068442;28;20123;-79
2023/03/21 13:02:46;;;;;;;12.50;6.03;;;11.20;99.90;;;;;;5068166;28;20049;-79
2023/03/21 13:05:27;;;;;;;11.13;6.30;;;11.20;99.90;;;;;;5068262;28;20048;-79
2023/03/21 13:08:05;;;;;;;12.70;6.57;;;11.10;99.90;;;;;;5068207;28;20094;-79